Time;durP1;ratioP1;P1;durP2;ratioP2;P2;SDS_P1;SDS_P2;PMS_P1;PMS_P2;Temp;Humidity;BMP_temperature;BMP_pressure;BME280_temperature;BME280_humidity;BME280_pressure;Samples;Min_cycle;Max_cycle;Signal;HPM_P1;HPM_P2
2021/03/11 00:00:15;;;;;;;23.96;13.28;;;;;;;-5.14;60.47;100189.58;331120;115;2249913;-70
2021/03/11 00:01:20;;;;;;;24.50;13.07;;;;;;;-5.15;60.48;100182.63;341044;115;1964847;-70
2021/03/11 00:02:25;;;;;;;21.21;12.96;;;;;;;-5.16;60.58;100189.69;346501;115;1961977;-71
2021/03/11 00:03:31;;;;;;;30.26;13.68;;;;;;;-5.17;60.53;100192.41;346371;115;1962032;-70
2021/03/11 00:04:38;;;;;;;24.87;13.09;;;;;;;-5.16;60.55;100194.09;337690;115;1962927;-70
2021/03/11 00:05:43;;;;;;;28.48;13.47;;;;;;;-5.17;60.53;100193.25;344269;115;1961949;-70
2021/03/11 00:06:49;;;;;;;27.91;14.44;;;;;;;-5.16;60.68;100192.33;347407;114;1964112;-72
2021/03/11 00:07:55;;;;;;;29.08;13.27;;;;;;;-5.16;60.79;100189.69;328531;115;2342002;-70
2021/03/11 00:09:00;;;;;;;25.03;12.61;;;;;;;-5.15;60.76;100186.11;325287;115;1962100;-71
2021/03/11 00:10:16;;;;;;;21.46;12.54;;;;;;;-5.13;60.80;100188.66;342956;115;1961897;-70
2021/03/11 00:11:21;;;;;;;23.71;13.02;;;;;;;-5.13;60.75;100189.50;343355;114;1961974;-71
2021/03/11 00:12:27;;;;;;;26.83;12.97;;;;;;;-5.11;60.82;100186.76;325763;111;2592993;-71
2021/03/11 00:13:32;;;;;;;23.62;13.43;;;;;;;-5.12;60.81;100185.08;331919;111;1961889;-73
2021/03/11 00:14:37;;;;;;;24.08;13.29;;;;;;;-5.13;60.66;100191.30;355264;111;1962015;-71
2021/03/11 00:15:43;;;;;;;24.49;13.33;;;;;;;-5.15;60.72;100188.73;352985;113;1962945;-71
2021/03/11 00:16:50;;;;;;;23.46;12.20;;;;;;;-5.15;60.92;100183.47;328532;114;2216028;-71
2021/03/11 00:17:55;;;;;;;23.54;13.04;;;;;;;-5.17;60.95;100182.71;346332;113;1963941;-71
2021/03/11 00:19:01;;;;;;;24.88;13.02;;;;;;;-5.18;61.13;100175.77;349097;113;1961985;-71
2021/03/11 00:20:10;;;;;;;26.90;14.99;;;;;;;-5.18;61.17;100178.39;348795;113;1964047;-72
2021/03/11 00:21:16;;;;;;;25.77;13.61;;;;;;;-5.20;61.30;100175.00;350975;115;1961989;-72
2021/03/11 00:22:22;;;;;;;23.56;13.43;;;;;;;-5.18;61.42;100177.55;329665;113;2412076;-71
2021/03/11 00:23:27;;;;;;;25.67;13.23;;;;;;;-5.18;61.58;100181.03;351114;113;1962925;-72
2021/03/11 00:24:32;;;;;;;28.19;13.52;;;;;;;-5.17;61.51;100174.81;351392;113;1962949;-71
2021/03/11 00:25:38;;;;;;;24.65;13.55;;;;;;;-5.16;61.39;100171.25;351905;113;1961951;-70
2021/03/11 00:26:47;;;;;;;27.67;13.77;;;;;;;-5.16;61.38;100173.89;341183;113;2232916;-71
2021/03/11 00:28:05;;;;;;;27.79;13.98;;;;;;;-5.13;61.34;100172.86;328844;109;2583033;-70
2021/03/11 00:29:10;;;;;;;26.72;12.87;;;;;;;-5.13;61.30;100173.70;352984;113;1961978;-70
2021/03/11 00:30:18;;;;;;;26.49;14.12;;;;;;;-5.09;61.35;100175.19;318124;112;2226980;-71
2021/03/11 00:31:23;;;;;;;24.16;14.28;;;;;;;-5.07;61.25;100171.63;357078;112;1960875;-71
2021/03/11 00:32:30;;;;;;;26.24;13.24;;;;;;;-5.06;61.21;100173.31;355346;112;1960721;-71
2021/03/11 00:33:36;;;;;;;26.18;13.83;;;;;;;-5.06;61.29;100174.16;349307;113;1961054;-71
2021/03/11 00:34:41;;;;;;;28.45;13.92;;;;;;;-5.04;61.35;100167.02;354535;112;1960768;-70
2021/03/11 00:35:47;;;;;;;25.98;13.39;;;;;;;-5.02;61.26;100180.10;353785;112;1961913;-70
2021/03/11 00:36:53;;;;;;;23.61;13.27;;;;;;;-5.01;61.29;100174.72;322803;113;1961858;-71
2021/03/11 00:37:58;;;;;;;26.52;14.49;;;;;;;-4.99;61.27;100175.48;354204;113;1961289;-70
2021/03/11 00:39:05;;;;;;;28.66;14.28;;;;;;;-4.97;61.24;100170.13;356613;112;1960952;-70
2021/03/11 00:40:14;;;;;;;26.37;14.37;;;;;;;-4.96;61.25;100171.81;331562;112;2472654;-71
2021/03/11 00:41:19;;;;;;;23.36;13.19;;;;;;;-4.95;61.31;100176.13;353019;112;1961025;-70
2021/03/11 00:42:24;;;;;;;23.93;13.47;;;;;;;-4.95;61.35;100174.36;328745;112;2565870;-71
2021/03/11 00:43:30;;;;;;;25.34;13.86;;;;;;;-4.93;61.30;100171.62;339409;113;1960835;-70
2021/03/11 00:44:35;;;;;;;24.46;13.36;;;;;;;-4.94;61.26;100176.05;359148;113;1960800;-71
2021/03/11 00:45:42;;;;;;;28.18;14.43;;;;;;;-4.92;61.19;100170.66;355148;113;1960884;-71
2021/03/11 00:46:49;;;;;;;25.63;14.14;;;;;;;-4.92;61.19;100171.53;356854;112;1960820;-71
2021/03/11 00:47:55;;;;;;;27.54;14.76;;;;;;;-4.90;61.18;100172.27;355959;113;1960970;-70
2021/03/11 00:49:01;;;;;;;28.76;14.13;;;;;;;-4.88;61.29;100172.18;316511;113;2226982;-72
2021/03/11 00:50:11;;;;;;;24.64;14.07;;;;;;;-4.88;61.26;100169.55;354564;113;1960937;-71
2021/03/11 00:51:16;;;;;;;25.13;14.17;;;;;;;-4.89;61.24;100171.34;356144;113;1960666;-71
2021/03/11 00:52:24;;;;;;;26.36;13.51;;;;;;;-4.88;61.42;100167.75;337680;112;2904793;-72
2021/03/11 00:53:29;;;;;;;30.81;14.91;;;;;;;-4.88;61.59;100165.12;333401;112;1960660;-71
2021/03/11 00:54:34;;;;;;;26.99;12.67;;;;;;;-4.88;61.39;100164.28;356348;113;1960859;-71
2021/03/11 00:55:40;;;;;;;26.44;15.24;;;;;;;-4.88;61.41;100159.00;356253;112;1960794;-71
2021/03/11 00:56:47;;;;;;;23.13;13.45;;;;;;;-4.89;61.52;100159.95;323918;112;2009277;-71
2021/03/11 00:57:52;;;;;;;27.42;14.57;;;;;;;-4.89;61.48;100159.95;355175;113;1960825;-71
2021/03/11 00:59:00;;;;;;;29.08;14.34;;;;;;;-4.90;61.49;100152.98;344328;112;2885067;-70
2021/03/11 01:00:09;;;;;;;27.47;13.70;;;;;;;-4.90;61.69;100150.34;354478;113;1960816;-70
2021/03/11 01:01:16;;;;;;;28.26;13.44;;;;;;;-4.91;61.58;100154.77;352743;112;1962006;-71
2021/03/11 01:02:23;;;;;;;26.39;13.68;;;;;;;-4.91;61.71;100152.14;315556;113;2161962;-70
2021/03/11 01:03:31;;;;;;;26.54;14.29;;;;;;;-4.91;61.68;100148.66;355139;112;1964916;-70
2021/03/11 01:04:37;;;;;;;26.59;14.89;;;;;;;-4.92;61.57;100145.19;326134;113;2200919;-70
2021/03/11 01:05:42;;;;;;;27.97;15.37;;;;;;;-4.93;61.53;100146.11;347865;113;1964001;-70
2021/03/11 01:06:50;;;;;;;27.74;14.96;;;;;;;-4.92;61.62;100146.95;309069;112;2904918;-70
2021/03/11 01:07:56;;;;;;;23.99;13.67;;;;;;;-4.93;61.75;100142.64;337625;114;1963027;-71
2021/03/11 01:09:03;;;;;;;28.78;15.58;;;;;;;-4.94;61.75;100147.06;339046;118;1960822;-71
2021/03/11 01:10:10;;;;;;;27.73;14.93;;;;;;;-4.94;61.85;100143.59;334090;114;2305870;-71
2021/03/11 01:11:15;;;;;;;26.62;15.76;;;;;;;-4.95;61.79;100142.75;347302;114;1961925;-72
2021/03/11 01:12:21;;;;;;;24.41;13.72;;;;;;;-4.95;61.78;100147.14;339518;111;1961977;-71
2021/03/11 01:13:27;;;;;;;25.66;15.37;;;;;;;-4.94;61.77;100151.49;314117;119;2491004;-72
2021/03/11 01:14:32;;;;;;;26.86;14.13;;;;;;;-4.96;61.96;100142.83;335630;119;1961965;-71
2021/03/11 01:15:40;;;;;;;28.56;16.29;;;;;;;-4.98;61.87;100139.44;330935;122;1962954;-71
2021/03/11 01:16:49;;;;;;;27.68;15.34;;;;;;;-5.01;61.92;100143.11;339222;119;1962945;-71
2021/03/11 01:17:55;;;;;;;28.21;15.04;;;;;;;-5.02;62.19;100141.42;333670;117;1961906;-71
2021/03/11 01:19:00;;;;;;;29.44;15.16;;;;;;;-5.01;61.94;100142.27;335893;119;1962052;-71
2021/03/11 01:20:10;;;;;;;31.71;16.18;;;;;;;-5.01;61.98;100143.11;336988;120;1962029;-71
2021/03/11 01:21:17;;;;;;;35.15;17.02;;;;;;;-5.13;61.98;100123.66;343183;117;1964994;-71
2021/03/11 01:22:22;;;;;;;34.63;17.08;;;;;;;-5.04;61.91;100137.19;339683;117;1961966;-71
2021/03/11 01:23:29;;;;;;;28.99;15.92;;;;;;;-5.05;61.95;100144.26;339409;117;1963974;-71
2021/03/11 01:24:35;;;;;;;26.75;16.07;;;;;;;-5.07;61.92;100140.02;329815;115;2222026;-71
2021/03/11 01:25:40;;;;;;;30.68;15.79;;;;;;;-5.10;61.98;100136.63;340578;115;1962085;-71
2021/03/11 01:26:46;;;;;;;27.78;14.94;;;;;;;-5.11;62.22;100140.22;344959;115;1961949;-71
2021/03/11 01:27:51;;;;;;;28.89;15.27;;;;;;;-5.10;62.29;100143.69;345965;115;1963079;-71
2021/03/11 01:28:57;;;;;;;29.60;16.84;;;;;;;-5.11;62.48;100139.34;308332;116;2694021;-71
2021/03/11 01:30:06;;;;;;;28.98;15.67;;;;;;;-5.11;62.31;100137.58;334225;119;1962989;-71
2021/03/11 01:31:11;;;;;;;26.63;15.96;;;;;;;-5.11;62.32;100142.84;326323;117;2279019;-71
2021/03/11 01:32:16;;;;;;;28.44;15.68;;;;;;;-5.13;62.23;100136.82;339798;117;1960939;-71
2021/03/11 01:33:21;;;;;;;28.11;14.75;;;;;;;-5.13;62.22;100143.89;343033;117;1962807;-71
2021/03/11 01:34:28;;;;;;;31.26;16.59;;;;;;;-5.15;62.24;100132.59;344083;117;1961807;-71
2021/03/11 01:35:33;;;;;;;29.14;15.36;;;;;;;-5.16;62.42;100141.41;312424;119;2594983;-71
2021/03/11 01:36:39;;;;;;;30.86;14.88;;;;;;;-5.18;62.47;100140.69;346729;111;1960996;-71
2021/03/11 01:37:46;;;;;;;30.81;16.44;;;;;;;-5.19;62.54;100146.88;346808;116;1962036;-71
2021/03/11 01:38:51;;;;;;;29.83;16.81;;;;;;;-5.20;62.70;100140.77;320911;115;2569962;-71
2021/03/11 01:39:56;;;;;;;28.74;17.07;;;;;;;-5.20;62.74;100139.92;327032;115;1962990;-71
2021/03/11 01:41:04;;;;;;;28.69;16.48;;;;;;;-5.22;62.72;100140.00;347796;114;1962065;-71
2021/03/11 01:42:09;;;;;;;31.31;18.49;;;;;;;-5.23;62.95;100148.86;342963;112;2315050;-70
2021/03/11 01:43:15;;;;;;;33.74;17.55;;;;;;;-5.23;62.86;100146.22;342968;111;1962070;-71
2021/03/11 01:44:20;;;;;;;34.92;17.47;;;;;;;-5.24;62.89;100143.67;358535;113;1963954;-71
2021/03/11 01:45:26;;;;;;;31.35;17.41;;;;;;;-5.25;62.93;100148.09;357190;111;1963956;-71
2021/03/11 01:46:32;;;;;;;30.93;18.09;;;;;;;-5.25;62.86;100148.09;313774;110;2202631;-71
2021/03/11 01:47:49;;;;;;;32.73;17.79;;;;;;;-5.25;62.85;100137.56;359985;110;1964266;-72
2021/03/11 01:48:55;;;;;;;35.27;18.22;;;;;;;-5.25;62.94;100144.63;346700;109;2882982;-71
2021/03/11 01:50:01;;;;;;;33.20;17.71;;;;;;;-5.27;62.80;100146.50;359216;111;1961927;-71
2021/03/11 01:51:07;;;;;;;31.84;18.83;;;;;;;-5.29;62.89;100146.61;365889;109;1960676;-73
2021/03/11 01:52:13;;;;;;;32.91;19.29;;;;;;;-5.29;62.92;100154.51;346834;109;2871762;-70
2021/03/11 01:53:19;;;;;;;34.60;18.34;;;;;;;-5.31;63.01;100151.11;358469;111;1960756;-70
2021/03/11 01:54:24;;;;;;;33.78;18.44;;;;;;;-5.31;63.07;100151.95;362807;107;1960708;-71
2021/03/11 01:55:31;;;;;;;32.72;19.04;;;;;;;-5.30;63.14;100151.00;363257;111;1960814;-70
2021/03/11 01:56:38;;;;;;;33.78;18.44;;;;;;;-5.30;63.21;100158.06;362571;109;1961805;-71
2021/03/11 01:57:47;;;;;;;33.63;18.82;;;;;;;-5.31;63.25;100148.48;364609;111;1960663;-71
2021/03/11 01:58:53;;;;;;;34.75;19.84;;;;;;;-5.34;63.14;100149.52;365217;109;1963906;-70
2021/03/11 02:00:01;;;;;;;31.96;19.99;;;;;;;-5.35;63.22;100147.80;342973;112;2211953;-70
2021/03/11 02:01:09;;;;;;;33.95;18.11;;;;;;;-5.37;63.25;100146.20;325068;112;2207956;-70
2021/03/11 02:02:18;;;;;;;35.11;19.03;;;;;;;-5.40;63.24;100144.63;355591;113;1960859;-71
2021/03/11 02:03:24;;;;;;;31.34;18.47;;;;;;;-5.41;63.40;100155.23;349670;115;1961966;-70
2021/03/11 02:04:30;;;;;;;30.42;16.96;;;;;;;-5.41;63.58;100152.60;337440;119;1962035;-71
2021/03/11 02:05:36;;;;;;;31.79;17.77;;;;;;;-5.43;63.74;100157.95;310876;117;1989533;-70
2021/03/11 02:06:42;;;;;;;31.98;17.29;;;;;;;-5.44;63.68;100155.42;347678;115;1961997;-71
2021/03/11 02:07:48;;;;;;;36.99;17.79;;;;;;;-5.43;63.77;100157.11;347203;115;1961937;-70
2021/03/11 02:08:53;;;;;;;33.38;18.71;;;;;;;-5.43;63.68;100150.05;328689;118;2286895;-70
2021/03/11 02:09:59;;;;;;;36.14;19.79;;;;;;;-5.45;63.81;100149.32;317725;119;1961993;-70
2021/03/11 02:11:08;;;;;;;32.81;18.39;;;;;;;-5.44;63.91;100150.16;340404;119;1961965;-70
2021/03/11 02:12:50;;;;;;;34.03;18.82;;;;;;;-5.43;63.88;100160.58;341324;118;1964017;-71
2021/03/11 02:14:08;;;;;;;29.88;17.26;;;;;;;-5.41;63.84;100155.23;321853;118;2228027;-72
2021/03/11 02:15:26;;;;;;;36.52;16.05;;;;;;;-5.38;63.80;100155.05;347288;114;1961945;-72
2021/03/11 02:16:40;;;;;;;33.61;18.91;;;;;;;-5.35;63.77;100157.48;318106;117;2505038;-71
2021/03/11 02:18:01;;;;;;;32.11;18.74;;;;;;;-5.52;63.83;100121.66;356725;113;1961985;-71
2021/03/11 02:19:29;;;;;;;34.98;17.69;;;;;;;-5.32;63.94;100160.80;351181;113;1961939;-71
2021/03/11 02:20:58;;;;;;;31.63;17.96;;;;;;;-5.30;63.95;100155.42;319438;116;2530065;-72
2021/03/11 02:22:14;;;;;;;31.04;17.95;;;;;;;-5.27;63.83;100154.39;354687;113;1961983;-71
2021/03/11 02:23:44;;;;;;;33.87;18.92;;;;;;;-5.26;63.74;100156.95;355865;113;1960847;-71
2021/03/11 02:25:10;;;;;;;31.14;16.86;;;;;;;-5.25;63.74;100157.79;354704;113;1962024;-71
2021/03/11 02:26:37;;;;;;;29.93;16.51;;;;;;;-5.26;63.65;100166.64;355433;112;1961974;-71
2021/03/11 02:28:06;;;;;;;32.59;18.89;;;;;;;-5.26;63.63;100169.28;331069;113;1961908;-72
2021/03/11 02:29:21;;;;;;;37.12;18.80;;;;;;;-5.26;63.65;100169.28;321637;113;2055418;-72
2021/03/11 02:30:33;;;;;;;37.40;18.97;;;;;;;-5.25;63.52;100163.05;356227;112;1961920;-71
2021/03/11 02:31:41;;;;;;;34.09;18.21;;;;;;;-5.26;63.45;100169.28;371893;107;1965005;-71
2021/03/11 02:32:49;;;;;;;28.59;16.27;;;;;;;-5.27;63.43;100163.14;365885;109;1961995;-70
2021/03/11 02:33:57;;;;;;;34.32;18.16;;;;;;;-5.29;63.50;100170.31;367798;107;1961860;-71
2021/03/11 02:35:06;;;;;;;31.40;18.89;;;;;;;-5.30;63.59;100165.95;332944;107;2075491;-71
2021/03/11 02:36:14;;;;;;;36.40;18.74;;;;;;;-5.31;63.64;100164.28;331665;107;2072468;-71
2021/03/11 02:37:29;;;;;;;33.89;17.92;;;;;;;-5.32;63.62;100178.36;366253;109;1961986;-71
2021/03/11 02:38:36;;;;;;;33.62;18.80;;;;;;;-5.34;63.53;100175.00;342539;108;2556002;-71
2021/03/11 02:39:45;;;;;;;35.40;18.49;;;;;;;-5.36;63.69;100171.61;368664;107;1961988;-71
2021/03/11 02:40:56;;;;;;;35.58;19.41;;;;;;;-5.38;63.78;100168.21;369532;109;1961994;-70
2021/03/11 02:42:03;;;;;;;38.39;20.09;;;;;;;-5.40;63.86;100172.72;368401;108;1962045;-70
2021/03/11 02:43:12;;;;;;;32.91;17.61;;;;;;;-5.41;63.96;100171.88;373608;108;1961907;-70
2021/03/11 02:44:19;;;;;;;31.58;19.06;;;;;;;-5.41;63.91;100171.03;322091;107;2173289;-71
2021/03/11 02:45:31;;;;;;;34.62;20.00;;;;;;;-5.43;63.93;100170.27;347442;114;1961985;-71
2021/03/11 02:46:38;;;;;;;36.74;19.39;;;;;;;-5.45;64.00;100165.12;347719;114;1962925;-72
2021/03/11 02:47:44;;;;;;;36.83;20.12;;;;;;;-5.46;64.04;100170.45;314409;115;2722013;-70
2021/03/11 02:48:52;;;;;;;34.94;19.97;;;;;;;-5.48;64.35;100170.53;347561;116;1961936;-72
2021/03/11 02:50:00;;;;;;;34.59;20.80;;;;;;;-5.48;64.43;100167.06;333520;114;2315018;-70
2021/03/11 02:51:07;;;;;;;36.67;21.71;;;;;;;-5.49;64.49;100166.22;351815;113;1961977;-71
2021/03/11 02:52:13;;;;;;;40.94;22.84;;;;;;;-5.50;64.55;100171.56;313242;114;2083334;-71
2021/03/11 02:53:20;;;;;;;43.96;25.49;;;;;;;-5.52;64.77;100169.05;334111;120;1961008;-71
2021/03/11 02:54:27;;;;;;;41.09;21.84;;;;;;;-5.54;64.61;100171.75;319590;118;2475942;-71
2021/03/11 02:55:36;;;;;;;38.51;22.00;;;;;;;-5.55;65.01;100175.34;312907;117;2520937;-71
2021/03/11 02:56:47;;;;;;;36.76;21.66;;;;;;;-5.58;64.98;100175.52;301638;117;2210081;-71
2021/03/11 02:57:53;;;;;;;45.65;23.84;;;;;;;-5.60;64.99;100172.13;341791;117;1961951;-71
2021/03/11 02:58:59;;;;;;;43.33;23.04;;;;;;;-5.60;65.04;100176.55;340796;117;1960868;-70
2021/03/11 03:00:08;;;;;;;47.53;22.28;;;;;;;-5.62;65.13;100175.78;344688;116;1961993;-70
2021/03/11 03:01:15;;;;;;;40.32;22.47;;;;;;;-5.65;65.30;100168.91;343346;109;1960626;-70
2021/03/11 03:02:22;;;;;;;43.44;24.37;;;;;;;-5.65;65.51;100168.91;317603;118;1962003;-70
2021/03/11 03:03:29;;;;;;;38.67;23.53;;;;;;;-5.67;65.52;100167.31;334060;120;1961917;-71
2021/03/11 03:04:37;;;;;;;39.57;23.88;;;;;;;-5.68;65.62;100174.36;332957;115;1961973;-71
2021/03/11 03:05:44;;;;;;;45.48;26.69;;;;;;;-5.70;65.72;100168.34;301744;116;2867909;-70
2021/03/11 03:06:50;;;;;;;47.86;26.42;;;;;;;-5.72;65.87;100172.84;343015;115;1964007;-71
2021/03/11 03:07:57;;;;;;;52.34;27.12;;;;;;;-5.75;65.96;100171.23;346419;115;1961972;-70
2021/03/11 03:09:04;;;;;;;44.58;25.98;;;;;;;-5.77;66.05;100170.50;345463;114;1963917;-71
2021/03/11 03:10:11;;;;;;;53.51;28.13;;;;;;;-5.76;66.32;100168.70;336227;116;2204966;-71
2021/03/11 03:11:17;;;;;;;48.28;26.71;;;;;;;-5.78;66.40;100168.78;347485;114;1964022;-71
2021/03/11 03:12:23;;;;;;;48.93;26.77;;;;;;;-5.81;66.45;100168.97;347424;116;1962904;-71
2021/03/11 03:13:29;;;;;;;48.99;27.79;;;;;;;-5.81;66.67;100173.39;315903;115;2202038;-71
2021/03/11 03:14:37;;;;;;;49.63;27.93;;;;;;;-5.80;66.68;100169.81;348577;115;1961918;-71
2021/03/11 03:15:43;;;;;;;45.49;25.69;;;;;;;-5.80;66.69;100160.13;331015;117;2335961;-70
2021/03/11 03:16:52;;;;;;;66.28;30.19;;;;;;;-5.79;66.84;100164.47;347264;115;1959884;-71
2021/03/11 03:17:58;;;;;;;52.81;30.30;;;;;;;-5.80;66.68;100169.81;345287;117;1962046;-70
2021/03/11 03:19:06;;;;;;;51.56;27.72;;;;;;;-5.80;66.75;100161.91;346715;115;1961936;-72
2021/03/11 03:20:14;;;;;;;45.29;27.39;;;;;;;-5.80;66.89;100160.13;344309;116;1962031;-72
2021/03/11 03:21:20;;;;;;;48.76;27.40;;;;;;;-5.81;66.86;100162.86;316143;114;1990299;-71
2021/03/11 03:22:27;;;;;;;51.31;28.69;;;;;;;-5.82;67.00;100159.39;347121;114;1962014;-70
2021/03/11 03:23:33;;;;;;;47.11;28.06;;;;;;;-5.83;66.89;100165.57;310538;116;2226781;-70
2021/03/11 03:24:39;;;;;;;47.30;25.41;;;;;;;-5.85;66.95;100159.55;348728;115;1961970;-70
2021/03/11 03:25:58;;;;;;;44.67;26.24;;;;;;;-5.87;66.89;100152.71;348355;114;1962926;-71
2021/03/11 03:27:04;;;;;;;47.92;25.21;;;;;;;-5.89;67.04;100159.84;349410;113;1961995;-70
2021/03/11 03:28:10;;;;;;;48.42;26.16;;;;;;;-5.91;67.09;100165.17;340483;116;2190075;-70
2021/03/11 03:29:26;;;;;;;43.11;26.96;;;;;;;-5.91;67.30;100159.06;343894;114;1961988;-70
2021/03/11 03:30:45;;;;;;;44.99;26.27;;;;;;;-5.93;67.18;100164.41;358099;111;1961953;-71
2021/03/11 03:31:51;;;;;;;41.61;22.15;;;;;;;-5.93;67.44;100161.78;349092;115;1961871;-70
2021/03/11 03:32:56;;;;;;;46.81;22.34;;;;;;;-5.93;67.17;100160.97;330106;115;2390016;-71
2021/03/11 03:34:13;;;;;;;45.34;23.61;;;;;;;-5.93;67.26;100164.41;339873;115;1961920;-71
2021/03/11 03:35:22;;;;;;;42.35;20.68;;;;;;;-5.92;67.32;100163.49;347576;115;1962971;-71
2021/03/11 03:36:28;;;;;;;38.47;22.18;;;;;;;-5.92;67.06;100163.49;345053;115;1963036;-71
2021/03/11 03:37:35;;;;;;;43.81;22.74;;;;;;;-5.91;66.97;100161.70;322061;115;2461880;-70
2021/03/11 03:38:54;;;;;;;50.46;21.86;;;;;;;-5.89;66.91;100167.73;345923;115;1961977;-70
2021/03/11 03:40:03;;;;;;;37.53;21.29;;;;;;;-5.89;66.69;100162.47;353346;113;1961929;-72
2021/03/11 03:41:09;;;;;;;35.52;19.19;;;;;;;-5.86;66.56;100167.55;353190;113;1962027;-71
2021/03/11 03:42:15;;;;;;;32.79;17.68;;;;;;;-5.84;66.55;100165.68;354745;113;1962012;-71
2021/03/11 03:43:25;;;;;;;34.38;19.26;;;;;;;-5.84;66.30;100161.26;327531;109;2215989;-71
2021/03/11 03:44:37;;;;;;;37.13;18.60;;;;;;;-5.84;66.04;100163.89;349157;116;1961917;-72
2021/03/11 03:45:45;;;;;;;;;;;;;;;-5.84;66.04;100171.78;311265;116;2818909;-71
2021/03/11 03:46:53;;;;;;;37.59;18.38;;;;;;;-5.85;65.92;100170.06;347041;115;1961054;-71
2021/03/11 03:48:01;;;;;;;37.36;17.58;;;;;;;-5.83;66.06;100168.20;347589;117;1962901;-71
2021/03/11 03:49:18;;;;;;;37.09;17.34;;;;;;;-5.83;65.82;100169.99;320139;115;2215936;-71
2021/03/11 03:50:25;;;;;;;38.11;17.05;;;;;;;-5.84;65.77;100176.20;334236;120;1963976;-70
2021/03/11 03:51:34;;;;;;;39.73;19.61;;;;;;;-5.86;65.75;100171.02;310782;118;1962124;-71
2021/03/11 03:52:40;;;;;;;42.93;16.73;;;;;;;-5.88;65.75;100169.41;309666;116;2234974;-71
2021/03/11 03:53:49;;;;;;;36.74;18.37;;;;;;;-5.88;65.77;100166.78;346138;116;1962006;-71
2021/03/11 03:54:58;;;;;;;31.40;16.01;;;;;;;-5.89;65.67;100165.94;346040;116;1961902;-71
2021/03/11 03:56:07;;;;;;;34.91;16.44;;;;;;;-5.90;65.57;100166.02;344065;116;1961942;-72
2021/03/11 03:57:16;;;;;;;32.39;16.24;;;;;;;-5.90;65.67;100168.64;334933;115;1964918;-71
2021/03/11 03:58:23;;;;;;;31.00;14.99;;;;;;;-5.91;65.73;100161.70;319304;115;1963004;-71
2021/03/11 03:59:32;;;;;;;35.56;15.46;;;;;;;-5.93;65.54;100160.97;346720;115;1962018;-71
2021/03/11 04:00:41;;;;;;;33.46;16.34;;;;;;;-5.94;65.53;100161.91;314295;115;2199918;-71
2021/03/11 04:01:51;;;;;;;29.36;15.36;;;;;;;-5.95;65.55;100163.70;348109;115;1971060;-71
2021/03/11 04:02:59;;;;;;;32.16;15.75;;;;;;;-5.97;65.56;100170.83;347625;115;1962015;-71
2021/03/11 04:04:08;;;;;;;34.28;15.18;;;;;;;-5.99;65.62;100164.80;348861;115;1961909;-71
2021/03/11 04:05:14;;;;;;;29.76;14.70;;;;;;;-6.00;65.65;100168.38;347675;115;1963004;-71
2021/03/11 04:06:21;;;;;;;27.13;13.86;;;;;;;-5.99;65.70;100176.16;335906;115;2201919;-71
2021/03/11 04:07:29;;;;;;;28.02;14.14;;;;;;;-5.99;65.63;100162.17;347419;115;1962006;-71
2021/03/11 04:08:35;;;;;;;25.47;13.61;;;;;;;-5.97;65.58;100173.46;328559;115;2418960;-71
2021/03/11 04:09:42;;;;;;;29.77;14.59;;;;;;;-5.97;65.61;100178.72;348989;113;1962921;-71
2021/03/11 04:10:49;;;;;;;28.97;13.97;;;;;;;-5.98;65.50;100172.62;326924;116;1964068;-71
2021/03/11 04:11:57;;;;;;;27.18;14.03;;;;;;;-5.98;65.37;100174.38;346100;116;1962020;-71
2021/03/11 04:13:03;;;;;;;33.33;16.13;;;;;;;-5.98;65.43;100179.64;308395;116;2119961;-71
2021/03/11 04:14:10;;;;;;;34.17;15.38;;;;;;;-5.98;65.59;100182.27;342780;112;1962191;-71
2021/03/11 04:15:16;;;;;;;34.37;14.80;;;;;;;-5.99;65.48;100178.80;320553;121;2227030;-71
2021/03/11 04:16:24;;;;;;;33.77;15.09;;;;;;;-5.96;65.47;100188.30;334194;120;1963019;-71
2021/03/11 04:17:29;;;;;;;32.70;14.73;;;;;;;-5.97;65.40;100186.61;303695;109;2228002;-70
2021/03/11 04:18:37;;;;;;;28.77;13.89;;;;;;;-5.96;65.40;100190.92;344013;116;1962061;-71
2021/03/11 04:19:44;;;;;;;33.64;13.93;;;;;;;-5.93;65.30;100182.02;317984;116;2535042;-70
2021/03/11 04:20:50;;;;;;;28.86;14.64;;;;;;;-5.92;65.29;100183.69;345814;115;1962007;-70
2021/03/11 04:21:56;;;;;;;41.03;15.34;;;;;;;-5.90;65.23;100181.80;316058;115;2596003;-70
2021/03/11 04:23:03;;;;;;;34.90;13.96;;;;;;;-5.89;65.26;100183.52;343542;117;1961993;-70
2021/03/11 04:24:10;;;;;;;42.48;17.24;;;;;;;-5.88;65.17;100177.30;344467;116;1962061;-71
2021/03/11 04:25:18;;;;;;;28.98;15.19;;;;;;;-5.86;65.10;100183.33;343705;117;1962054;-71
2021/03/11 04:26:24;;;;;;;28.18;14.29;;;;;;;-5.84;65.13;100178.83;301903;116;2215339;-71
2021/03/11 04:27:29;;;;;;;31.67;14.12;;;;;;;-5.83;65.10;100177.88;344481;118;1961985;-71
2021/03/11 04:28:40;;;;;;;31.87;15.03;;;;;;;-5.81;65.01;100178.65;344476;116;1961931;31
2021/03/11 04:29:46;;;;;;;28.13;14.28;;;;;;;-5.78;64.93;100173.20;326633;122;1961843;-71
2021/03/11 04:30:52;;;;;;;40.57;16.50;;;;;;;-5.75;64.89;100176.49;328392;122;1962957;-71
2021/03/11 04:32:00;;;;;;;41.88;17.74;;;;;;;-5.73;64.86;100172.95;330424;120;1961904;-70
2021/03/11 04:33:06;;;;;;;41.46;16.43;;;;;;;-5.70;64.70;100176.23;324615;122;1962019;-71
2021/03/11 04:34:12;;;;;;;36.99;15.44;;;;;;;-5.68;64.76;100168.27;330655;122;1961993;-71
2021/03/11 04:35:18;;;;;;;43.62;18.09;;;;;;;-5.65;64.72;100173.34;317636;119;2430985;-72
2021/03/11 04:36:25;;;;;;;36.44;15.93;;;;;;;-5.63;64.61;100174.10;343316;112;1962052;-71
2021/03/11 04:37:32;;;;;;;37.51;15.42;;;;;;;-5.61;64.45;100178.34;326478;114;2829008;-71
2021/03/11 04:38:38;;;;;;;32.56;16.53;;;;;;;-5.57;64.35;100176.36;345662;115;1961906;-71
2021/03/11 04:39:46;;;;;;;32.62;15.89;;;;;;;-5.55;64.21;100177.13;347820;114;1965256;-73
2021/03/11 04:40:54;;;;;;;29.08;14.38;;;;;;;-5.53;64.11;100181.36;344993;116;1961984;-72
2021/03/11 04:42:00;;;;;;;35.27;15.21;;;;;;;-5.49;63.94;100183.80;318891;118;1961971;-71
2021/03/11 04:43:05;;;;;;;30.04;13.61;;;;;;;-5.47;63.87;100182.78;347290;115;1962963;-71
2021/03/11 04:44:11;;;;;;;30.16;14.01;;;;;;;-5.44;63.65;100185.23;344983;115;1962052;-72
2021/03/11 04:45:17;;;;;;;23.61;13.83;;;;;;;-5.42;63.50;100183.36;311452;114;2078161;-72
2021/03/11 04:46:25;;;;;;;29.18;14.51;;;;;;;-5.38;63.33;100184.84;346960;114;1962028;-71
2021/03/11 04:47:32;;;;;;;28.84;14.50;;;;;;;-5.36;63.24;100187.41;340972;114;1960977;-71
2021/03/11 04:48:38;;;;;;;27.50;13.63;;;;;;;-5.32;63.12;100186.27;348805;115;1961865;-71
2021/03/11 04:49:45;;;;;;;27.12;13.34;;;;;;;-5.28;63.02;100186.95;337061;114;2205909;-71
2021/03/11 04:50:53;;;;;;;30.73;14.49;;;;;;;-5.27;62.91;100184.20;347458;114;1962932;-71
2021/03/11 04:52:00;;;;;;;26.03;12.74;;;;;;;-5.25;62.80;100182.33;338972;118;1961789;-71
2021/03/11 04:53:08;;;;;;;30.61;13.12;;;;;;;-5.23;62.78;100190.16;324935;114;2827997;-71
2021/03/11 04:54:14;;;;;;;30.06;14.84;;;;;;;-5.22;62.62;100184.77;347425;114;1961996;-71
2021/03/11 04:55:21;;;;;;;28.80;14.28;;;;;;;-5.20;62.56;100187.33;310559;114;2101281;-71
2021/03/11 04:56:28;;;;;;;30.03;13.76;;;;;;;-5.18;62.52;100188.93;348559;114;1962075;-71
2021/03/11 04:57:34;;;;;;;24.31;12.31;;;;;;;-5.17;62.43;100192.41;310485;114;2928883;-71
2021/03/11 04:58:41;;;;;;;27.47;13.97;;;;;;;-5.15;62.32;100187.90;347904;114;1962027;-71
2021/03/11 04:59:46;;;;;;;24.68;13.59;;;;;;;-5.14;62.26;100186.95;346870;114;1962073;-71
2021/03/11 05:00:54;;;;;;;28.82;14.14;;;;;;;-5.14;62.23;100187.79;313594;109;2031727;-70
2021/03/11 05:02:04;;;;;;;28.49;13.03;;;;;;;-5.12;62.17;100179.80;346206;113;1962030;-71